Terminal Aerodrome Forecast
Issued by NWS Omaha/Valley, NE

Home | Current Version | Previous Version | Text Only | Print | Product List | Glossary On
Versions: 1 2 3 4 5 6 7 8 9 10 11 12 13 14 15 16 17 18
000
FTUS43 KOAX 280156 AAA
TAFOFK
TAF AMD
KOFK 280156Z 2802/2824 VRB05KT 5SM -SHRA SCT025 OVC040
      TEMPO 2802/2806 VRB15KT 1SM TSRA BR BKN025CB
     FM281200 34006KT P6SM OVC050=

USA.gov is the U.S. government's official web portal to all federal, state and local government web resources and services.